sensor_id;sensor_type;location;lat;lon;timestamp;temperature;humidity
8475;DHT22;4274;52.012;8.448;2024-02-28T00:00:10;-0.70;99.90
8475;DHT22;4274;52.012;8.448;2024-02-28T00:02:36;-0.70;99.90
8475;DHT22;4274;52.012;8.448;2024-02-28T00:05:02;-0.80;99.90
8475;DHT22;4274;52.012;8.448;2024-02-28T00:07:28;-0.90;99.90
8475;DHT22;4274;52.012;8.448;2024-02-28T00:09:53;-1.00;99.90
8475;DHT22;4274;52.012;8.448;2024-02-28T00:12:23;-1.00;99.90
8475;DHT22;4274;52.012;8.448;2024-02-28T00:14:50;-1.00;99.90
8475;DHT22;4274;52.012;8.448;2024-02-28T00:17:16;-1.00;99.90
8475;DHT22;4274;52.012;8.448;2024-02-28T00:19:41;-1.00;99.90
8475;DHT22;4274;52.012;8.448;2024-02-28T00:22:08;-0.90;99.90
8475;DHT22;4274;52.012;8.448;2024-02-28T00:24:34;-0.90;99.90
8475;DHT22;4274;52.012;8.448;2024-02-28T00:26:59;-0.90;99.90
8475;DHT22;4274;52.012;8.448;2024-02-28T00:29:26;-0.90;99.90
8475;DHT22;4274;52.012;8.448;2024-02-28T00:31:52;-0.80;99.90
8475;DHT22;4274;52.012;8.448;2024-02-28T00:34:18;-0.90;99.90
8475;DHT22;4274;52.012;8.448;2024-02-28T00:36:44;-0.90;99.90
8475;DHT22;4274;52.012;8.448;2024-02-28T00:39:10;-1.00;99.90
8475;DHT22;4274;52.012;8.448;2024-02-28T00:41:36;-0.90;99.90
8475;DHT22;4274;52.012;8.448;2024-02-28T00:44:02;-0.90;99.90
8475;DHT22;4274;52.012;8.448;2024-02-28T00:46:28;-0.80;99.90
8475;DHT22;4274;52.012;8.448;2024-02-28T00:48:54;-0.80;99.90
8475;DHT22;4274;52.012;8.448;2024-02-28T00:51:19;-0.80;99.90
8475;DHT22;4274;52.012;8.448;2024-02-28T00:53:45;-0.90;99.90
8475;DHT22;4274;52.012;8.448;2024-02-28T00:56:10;-0.90;99.90
8475;DHT22;4274;52.012;8.448;2024-02-28T00:58:36;-1.00;99.90
8475;DHT22;4274;52.012;8.448;2024-02-28T01:01:02;-1.00;99.90
8475;DHT22;4274;52.012;8.448;2024-02-28T01:03:27;-0.90;99.90
8475;DHT22;4274;52.012;8.448;2024-02-28T01:05:53;-0.80;99.90
8475;DHT22;4274;52.012;8.448;2024-02-28T01:08:19;-0.70;99.90
8475;DHT22;4274;52.012;8.448;2024-02-28T01:10:45;-0.70;99.90
8475;DHT22;4274;52.012;8.448;2024-02-28T01:13:10;-0.70;99.90
8475;DHT22;4274;52.012;8.448;2024-02-28T01:15:36;-0.70;99.90
8475;DHT22;4274;52.012;8.448;2024-02-28T01:18:02;-0.80;99.90
8475;DHT22;4274;52.012;8.448;2024-02-28T01:20:27;-0.80;99.90
8475;DHT22;4274;52.012;8.448;2024-02-28T01:22:53;-0.80;99.90
8475;DHT22;4274;52.012;8.448;2024-02-28T01:25:18;-0.70;99.90
8475;DHT22;4274;52.012;8.448;2024-02-28T01:27:44;-0.70;99.90
8475;DHT22;4274;52.012;8.448;2024-02-28T01:30:10;-0.70;99.90
8475;DHT22;4274;52.012;8.448;2024-02-28T01:32:36;-0.80;99.90
8475;DHT22;4274;52.012;8.448;2024-02-28T01:35:05;-0.80;99.90
8475;DHT22;4274;52.012;8.448;2024-02-28T01:37:30;-0.80;99.90
8475;DHT22;4274;52.012;8.448;2024-02-28T01:39:57;-0.90;99.90
8475;DHT22;4274;52.012;8.448;2024-02-28T01:42:22;-0.90;99.90
8475;DHT22;4274;52.012;8.448;2024-02-28T01:44:48;-0.90;99.90
8475;DHT22;4274;52.012;8.448;2024-02-28T01:47:14;-0.90;99.90
8475;DHT22;4274;52.012;8.448;2024-02-28T01:49:41;-0.90;99.90
8475;DHT22;4274;52.012;8.448;2024-02-28T01:52:08;-0.80;99.90
8475;DHT22;4274;52.012;8.448;2024-02-28T01:54:34;-0.90;99.90
8475;DHT22;4274;52.012;8.448;2024-02-28T01:57:00;-1.00;99.90
8475;DHT22;4274;52.012;8.448;2024-02-28T01:59:27;-1.00;99.90
8475;DHT22;4274;52.012;8.448;2024-02-28T02:01:54;-1.00;99.90
8475;DHT22;4274;52.012;8.448;2024-02-28T02:04:19;-1.00;99.90
8475;DHT22;4274;52.012;8.448;2024-02-28T02:06:45;-1.00;99.90
8475;DHT22;4274;52.012;8.448;2024-02-28T02:09:12;-0.90;99.90
8475;DHT22;4274;52.012;8.448;2024-02-28T02:11:38;-0.80;99.90
8475;DHT22;4274;52.012;8.448;2024-02-28T02:14:04;-0.70;99.90
8475;DHT22;4274;52.012;8.448;2024-02-28T02:16:30;-0.60;99.90
8475;DHT22;4274;52.012;8.448;2024-02-28T02:18:55;-0.60;99.90
8475;DHT22;4274;52.012;8.448;2024-02-28T02:21:24;-0.50;99.90
8475;DHT22;4274;52.012;8.448;2024-02-28T02:23:51;-0.50;99.90
8475;DHT22;4274;52.012;8.448;2024-02-28T02:26:16;-0.50;99.90
8475;DHT22;4274;52.012;8.448;2024-02-28T02:28:42;-0.60;99.90
8475;DHT22;4274;52.012;8.448;2024-02-28T02:31:08;-0.70;99.90
8475;DHT22;4274;52.012;8.448;2024-02-28T02:33:33;-0.80;99.90
8475;DHT22;4274;52.012;8.448;2024-02-28T02:35:59;-0.80;99.90
8475;DHT22;4274;52.012;8.448;2024-02-28T02:38:24;-0.80;99.90
8475;DHT22;4274;52.012;8.448;2024-02-28T02:40:51;-0.80;99.90
8475;DHT22;4274;52.012;8.448;2024-02-28T02:43:17;-0.80;99.90
8475;DHT22;4274;52.012;8.448;2024-02-28T02:45:42;-0.80;99.90
8475;DHT22;4274;52.012;8.448;2024-02-28T02:48:09;-0.80;99.90
8475;DHT22;4274;52.012;8.448;2024-02-28T02:50:34;-0.80;99.90
8475;DHT22;4274;52.012;8.448;2024-02-28T02:53:00;-0.80;99.90
8475;DHT22;4274;52.012;8.448;2024-02-28T02:55:25;-0.80;99.90
8475;DHT22;4274;52.012;8.448;2024-02-28T02:57:51;-0.70;99.90
8475;DHT22;4274;52.012;8.448;2024-02-28T03:00:17;-0.70;99.90
8475;DHT22;4274;52.012;8.448;2024-02-28T03:02:42;-0.60;99.90
8475;DHT22;4274;52.012;8.448;2024-02-28T03:05:08;-0.40;99.90
8475;DHT22;4274;52.012;8.448;2024-02-28T03:07:34;-0.40;99.90
8475;DHT22;4274;52.012;8.448;2024-02-28T03:10:00;-0.30;99.90
8475;DHT22;4274;52.012;8.448;2024-02-28T03:12:27;-0.20;99.90
8475;DHT22;4274;52.012;8.448;2024-02-28T03:14:52;-0.10;99.90
8475;DHT22;4274;52.012;8.448;2024-02-28T03:17:18;0.00;99.90
8475;DHT22;4274;52.012;8.448;2024-02-28T03:19:43;0.10;99.90
8475;DHT22;4274;52.012;8.448;2024-02-28T03:22:09;0.10;99.90
8475;DHT22;4274;52.012;8.448;2024-02-28T03:24:34;0.10;99.90
8475;DHT22;4274;52.012;8.448;2024-02-28T03:27:04;0.10;99.90
8475;DHT22;4274;52.012;8.448;2024-02-28T03:29:30;0.10;99.90
8475;DHT22;4274;52.012;8.448;2024-02-28T03:31:56;0.10;99.90
8475;DHT22;4274;52.012;8.448;2024-02-28T03:34:21;0.10;99.90
8475;DHT22;4274;52.012;8.448;2024-02-28T03:36:47;0.10;99.90
8475;DHT22;4274;52.012;8.448;2024-02-28T03:39:13;0.10;99.90
8475;DHT22;4274;52.012;8.448;2024-02-28T03:41:38;0.00;99.90
8475;DHT22;4274;52.012;8.448;2024-02-28T03:44:04;0.00;99.90
8475;DHT22;4274;52.012;8.448;2024-02-28T03:46:30;0.00;99.90
8475;DHT22;4274;52.012;8.448;2024-02-28T03:48:56;0.00;99.90
8475;DHT22;4274;52.012;8.448;2024-02-28T03:51:21;0.00;99.90
8475;DHT22;4274;52.012;8.448;2024-02-28T03:53:47;0.00;99.90
8475;DHT22;4274;52.012;8.448;2024-02-28T03:56:13;-0.10;99.90
8475;DHT22;4274;52.012;8.448;2024-02-28T03:58:40;-0.10;99.90
8475;DHT22;4274;52.012;8.448;2024-02-28T04:01:05;0.00;99.90
8475;DHT22;4274;52.012;8.448;2024-02-28T04:03:31;0.00;99.90
8475;DHT22;4274;52.012;8.448;2024-02-28T04:05:57;0.00;99.90
8475;DHT22;4274;52.012;8.448;2024-02-28T04:08:22;0.00;99.90
8475;DHT22;4274;52.012;8.448;2024-02-28T04:10:48;0.00;99.90
8475;DHT22;4274;52.012;8.448;2024-02-28T04:13:16;0.00;99.90
8475;DHT22;4274;52.012;8.448;2024-02-28T04:15:41;0.00;99.90
8475;DHT22;4274;52.012;8.448;2024-02-28T04:18:07;-0.10;99.90
8475;DHT22;4274;52.012;8.448;2024-02-28T04:20:33;-0.10;99.90
8475;DHT22;4274;52.012;8.448;2024-02-28T04:22:58;0.00;99.90
8475;DHT22;4274;52.012;8.448;2024-02-28T04:25:24;-0.10;99.90
8475;DHT22;4274;52.012;8.448;2024-02-28T04:27:49;0.00;99.90
8475;DHT22;4274;52.012;8.448;2024-02-28T04:30:15;-0.10;99.90
8475;DHT22;4274;52.012;8.448;2024-02-28T04:32:41;-0.10;99.90
8475;DHT22;4274;52.012;8.448;2024-02-28T04:35:07;-0.10;99.90
8475;DHT22;4274;52.012;8.448;2024-02-28T04:37:32;-0.10;99.90
8475;DHT22;4274;52.012;8.448;2024-02-28T04:40:00;-0.10;99.90
8475;DHT22;4274;52.012;8.448;2024-02-28T04:42:25;-0.10;99.90
8475;DHT22;4274;52.012;8.448;2024-02-28T04:44:51;0.00;99.90
8475;DHT22;4274;52.012;8.448;2024-02-28T04:47:16;-0.10;99.90
8475;DHT22;4274;52.012;8.448;2024-02-28T04:49:42;-0.10;99.90
8475;DHT22;4274;52.012;8.448;2024-02-28T04:52:08;-0.10;99.90
8475;DHT22;4274;52.012;8.448;2024-02-28T04:54:33;-0.10;99.90
8475;DHT22;4274;52.012;8.448;2024-02-28T04:56:59;0.00;99.90
8475;DHT22;4274;52.012;8.448;2024-02-28T04:59:24;-0.10;99.90
8475;DHT22;4274;52.012;8.448;2024-02-28T05:01:51;-0.10;99.90
8475;DHT22;4274;52.012;8.448;2024-02-28T05:04:17;-0.10;99.90
8475;DHT22;4274;52.012;8.448;2024-02-28T05:06:42;-0.10;99.90
8475;DHT22;4274;52.012;8.448;2024-02-28T05:09:08;0.00;99.90
8475;DHT22;4274;52.012;8.448;2024-02-28T05:11:34;0.00;99.90
8475;DHT22;4274;52.012;8.448;2024-02-28T05:14:00;0.00;99.90
8475;DHT22;4274;52.012;8.448;2024-02-28T05:16:25;-0.10;99.90
8475;DHT22;4274;52.012;8.448;2024-02-28T05:18:51;-0.10;99.90
8475;DHT22;4274;52.012;8.448;2024-02-28T05:21:16;-0.10;99.90
8475;DHT22;4274;52.012;8.448;2024-02-28T05:23:42;-0.20;99.90
8475;DHT22;4274;52.012;8.448;2024-02-28T05:26:08;-0.20;99.90
8475;DHT22;4274;52.012;8.448;2024-02-28T05:28:34;-0.20;99.90
8475;DHT22;4274;52.012;8.448;2024-02-28T05:31:25;-0.20;99.90
8475;DHT22;4274;52.012;8.448;2024-02-28T05:33:51;-0.30;99.90
8475;DHT22;4274;52.012;8.448;2024-02-28T05:36:17;-0.30;99.90
8475;DHT22;4274;52.012;8.448;2024-02-28T05:38:44;-0.20;99.90
8475;DHT22;4274;52.012;8.448;2024-02-28T05:41:09;-0.30;99.90
8475;DHT22;4274;52.012;8.448;2024-02-28T05:43:37;-0.30;99.90
8475;DHT22;4274;52.012;8.448;2024-02-28T05:46:03;-0.40;99.90
8475;DHT22;4274;52.012;8.448;2024-02-28T05:48:29;-0.40;99.90
8475;DHT22;4274;52.012;8.448;2024-02-28T05:50:54;-0.40;99.90
8475;DHT22;4274;52.012;8.448;2024-02-28T05:53:20;-0.40;99.90
8475;DHT22;4274;52.012;8.448;2024-02-28T05:55:46;-0.40;99.90
8475;DHT22;4274;52.012;8.448;2024-02-28T05:58:13;-0.30;99.90
8475;DHT22;4274;52.012;8.448;2024-02-28T06:00:39;-0.30;99.90
8475;DHT22;4274;52.012;8.448;2024-02-28T06:03:04;-0.30;99.90
8475;DHT22;4274;52.012;8.448;2024-02-28T06:05:30;-0.20;99.90
8475;DHT22;4274;52.012;8.448;2024-02-28T06:07:56;-0.20;99.90
8475;DHT22;4274;52.012;8.448;2024-02-28T06:10:21;-0.20;99.90
8475;DHT22;4274;52.012;8.448;2024-02-28T06:12:47;-0.20;99.90
8475;DHT22;4274;52.012;8.448;2024-02-28T06:15:13;-0.20;99.90
8475;DHT22;4274;52.012;8.448;2024-02-28T06:17:38;-0.20;99.90
8475;DHT22;4274;52.012;8.448;2024-02-28T06:20:05;-0.20;99.90
8475;DHT22;4274;52.012;8.448;2024-02-28T06:22:31;-0.20;99.90
8475;DHT22;4274;52.012;8.448;2024-02-28T06:24:57;-0.20;99.90
8475;DHT22;4274;52.012;8.448;2024-02-28T06:27:23;-0.20;99.90
8475;DHT22;4274;52.012;8.448;2024-02-28T06:29:48;-0.20;99.90
8475;DHT22;4274;52.012;8.448;2024-02-28T06:32:14;-0.20;99.90
8475;DHT22;4274;52.012;8.448;2024-02-28T06:34:40;-0.10;99.90
8475;DHT22;4274;52.012;8.448;2024-02-28T06:37:06;-0.10;99.90
8475;DHT22;4274;52.012;8.448;2024-02-28T06:39:31;-0.10;99.90
8475;DHT22;4274;52.012;8.448;2024-02-28T06:41:57;-0.20;99.90
8475;DHT22;4274;52.012;8.448;2024-02-28T06:44:22;-0.20;99.90
8475;DHT22;4274;52.012;8.448;2024-02-28T06:46:48;-0.10;99.90
8475;DHT22;4274;52.012;8.448;2024-02-28T06:49:14;-0.10;99.90
8475;DHT22;4274;52.012;8.448;2024-02-28T06:51:39;-0.10;99.90
8475;DHT22;4274;52.012;8.448;2024-02-28T06:54:05;-0.10;99.90
8475;DHT22;4274;52.012;8.448;2024-02-28T06:56:31;0.00;99.90
8475;DHT22;4274;52.012;8.448;2024-02-28T06:58:56;-0.10;99.90
8475;DHT22;4274;52.012;8.448;2024-02-28T07:01:22;0.00;99.90
8475;DHT22;4274;52.012;8.448;2024-02-28T07:03:47;0.00;99.90
8475;DHT22;4274;52.012;8.448;2024-02-28T07:06:13;0.00;99.90
8475;DHT22;4274;52.012;8.448;2024-02-28T07:08:39;0.10;99.90
8475;DHT22;4274;52.012;8.448;2024-02-28T07:11:04;0.10;99.90
8475;DHT22;4274;52.012;8.448;2024-02-28T07:13:30;0.10;99.90
8475;DHT22;4274;52.012;8.448;2024-02-28T07:15:56;0.10;99.90
8475;DHT22;4274;52.012;8.448;2024-02-28T07:18:23;0.10;99.90
8475;DHT22;4274;52.012;8.448;2024-02-28T07:20:51;0.20;99.90
8475;DHT22;4274;52.012;8.448;2024-02-28T07:23:17;0.20;99.90
8475;DHT22;4274;52.012;8.448;2024-02-28T07:25:43;0.20;99.90
8475;DHT22;4274;52.012;8.448;2024-02-28T07:28:09;0.30;99.90
8475;DHT22;4274;52.012;8.448;2024-02-28T07:30:34;0.30;99.90
8475;DHT22;4274;52.012;8.448;2024-02-28T07:33:00;0.30;99.90
8475;DHT22;4274;52.012;8.448;2024-02-28T07:35:26;0.30;99.90
8475;DHT22;4274;52.012;8.448;2024-02-28T07:37:51;0.40;99.90
8475;DHT22;4274;52.012;8.448;2024-02-28T07:40:17;0.50;99.90
8475;DHT22;4274;52.012;8.448;2024-02-28T07:42:43;0.50;99.90
8475;DHT22;4274;52.012;8.448;2024-02-28T07:45:09;0.50;99.90
8475;DHT22;4274;52.012;8.448;2024-02-28T07:47:35;0.50;99.90
8475;DHT22;4274;52.012;8.448;2024-02-28T07:50:00;0.50;99.90
8475;DHT22;4274;52.012;8.448;2024-02-28T07:52:26;0.50;99.90
8475;DHT22;4274;52.012;8.448;2024-02-28T07:54:51;0.50;99.90
8475;DHT22;4274;52.012;8.448;2024-02-28T07:57:17;0.50;99.90
8475;DHT22;4274;52.012;8.448;2024-02-28T07:59:43;0.60;99.90
8475;DHT22;4274;52.012;8.448;2024-02-28T08:02:09;0.60;99.90
8475;DHT22;4274;52.012;8.448;2024-02-28T08:04:38;0.60;99.90
8475;DHT22;4274;52.012;8.448;2024-02-28T08:07:05;0.70;99.90
8475;DHT22;4274;52.012;8.448;2024-02-28T08:09:30;0.70;99.90
8475;DHT22;4274;52.012;8.448;2024-02-28T08:11:56;0.70;99.90
8475;DHT22;4274;52.012;8.448;2024-02-28T08:14:23;0.80;99.90
8475;DHT22;4274;52.012;8.448;2024-02-28T08:16:49;0.90;99.90
8475;DHT22;4274;52.012;8.448;2024-02-28T08:19:14;0.90;99.90
8475;DHT22;4274;52.012;8.448;2024-02-28T08:21:40;0.90;99.90
8475;DHT22;4274;52.012;8.448;2024-02-28T08:24:06;0.90;99.90
8475;DHT22;4274;52.012;8.448;2024-02-28T08:26:31;1.00;99.90
8475;DHT22;4274;52.012;8.448;2024-02-28T08:28:57;1.00;99.90
8475;DHT22;4274;52.012;8.448;2024-02-28T08:31:23;1.10;99.90
8475;DHT22;4274;52.012;8.448;2024-02-28T08:33:48;1.20;99.90
8475;DHT22;4274;52.012;8.448;2024-02-28T08:36:14;1.20;99.90
8475;DHT22;4274;52.012;8.448;2024-02-28T08:38:41;1.30;99.90
8475;DHT22;4274;52.012;8.448;2024-02-28T08:41:07;1.30;99.90
8475;DHT22;4274;52.012;8.448;2024-02-28T08:43:42;1.40;99.90
8475;DHT22;4274;52.012;8.448;2024-02-28T08:46:07;1.40;99.90
8475;DHT22;4274;52.012;8.448;2024-02-28T08:48:33;1.50;99.90
8475;DHT22;4274;52.012;8.448;2024-02-28T08:50:59;1.50;99.90
8475;DHT22;4274;52.012;8.448;2024-02-28T08:53:25;1.60;99.90
8475;DHT22;4274;52.012;8.448;2024-02-28T08:55:51;1.60;99.90
8475;DHT22;4274;52.012;8.448;2024-02-28T08:58:16;1.60;99.90
8475;DHT22;4274;52.012;8.448;2024-02-28T09:00:43;1.60;99.90
8475;DHT22;4274;52.012;8.448;2024-02-28T09:03:08;1.70;99.90
8475;DHT22;4274;52.012;8.448;2024-02-28T09:05:34;1.80;99.90
8475;DHT22;4274;52.012;8.448;2024-02-28T09:07:59;1.80;99.90
8475;DHT22;4274;52.012;8.448;2024-02-28T09:10:26;1.90;99.90
8475;DHT22;4274;52.012;8.448;2024-02-28T09:12:52;2.00;99.90
8475;DHT22;4274;52.012;8.448;2024-02-28T09:15:18;2.00;99.90
8475;DHT22;4274;52.012;8.448;2024-02-28T09:17:43;2.10;99.90
8475;DHT22;4274;52.012;8.448;2024-02-28T09:20:10;2.10;99.90
8475;DHT22;4274;52.012;8.448;2024-02-28T09:22:36;2.20;99.90
8475;DHT22;4274;52.012;8.448;2024-02-28T09:25:01;2.20;99.90
8475;DHT22;4274;52.012;8.448;2024-02-28T09:27:30;2.20;99.90
8475;DHT22;4274;52.012;8.448;2024-02-28T09:29:56;2.30;99.90
8475;DHT22;4274;52.012;8.448;2024-02-28T09:32:21;2.30;99.90
8475;DHT22;4274;52.012;8.448;2024-02-28T09:34:47;2.40;99.90
8475;DHT22;4274;52.012;8.448;2024-02-28T09:37:14;2.40;99.90
8475;DHT22;4274;52.012;8.448;2024-02-28T09:39:40;2.50;99.90
8475;DHT22;4274;52.012;8.448;2024-02-28T09:42:09;2.50;99.90
8475;DHT22;4274;52.012;8.448;2024-02-28T09:44:36;2.60;99.90
8475;DHT22;4274;52.012;8.448;2024-02-28T09:47:02;2.70;99.90
8475;DHT22;4274;52.012;8.448;2024-02-28T09:49:28;2.70;99.90
8475;DHT22;4274;52.012;8.448;2024-02-28T09:51:57;2.70;99.90
8475;DHT22;4274;52.012;8.448;2024-02-28T09:54:24;2.80;99.90
8475;DHT22;4274;52.012;8.448;2024-02-28T09:56:50;2.80;99.90
8475;DHT22;4274;52.012;8.448;2024-02-28T09:59:18;2.80;99.90
8475;DHT22;4274;52.012;8.448;2024-02-28T10:01:47;2.80;99.90
8475;DHT22;4274;52.012;8.448;2024-02-28T10:04:13;2.90;99.90
8475;DHT22;4274;52.012;8.448;2024-02-28T10:06:40;2.80;99.90
8475;DHT22;4274;52.012;8.448;2024-02-28T10:09:05;2.80;99.90
8475;DHT22;4274;52.012;8.448;2024-02-28T10:11:31;2.80;99.90
8475;DHT22;4274;52.012;8.448;2024-02-28T10:13:58;2.80;99.90
8475;DHT22;4274;52.012;8.448;2024-02-28T10:16:24;2.80;99.90
8475;DHT22;4274;52.012;8.448;2024-02-28T10:18:50;2.80;99.90
8475;DHT22;4274;52.012;8.448;2024-02-28T10:21:15;2.80;99.90
8475;DHT22;4274;52.012;8.448;2024-02-28T10:23:41;2.80;99.90
8475;DHT22;4274;52.012;8.448;2024-02-28T10:26:11;2.90;99.90
8475;DHT22;4274;52.012;8.448;2024-02-28T10:28:39;3.00;99.90
8475;DHT22;4274;52.012;8.448;2024-02-28T10:31:06;3.00;99.90
8475;DHT22;4274;52.012;8.448;2024-02-28T10:33:33;3.10;99.90
8475;DHT22;4274;52.012;8.448;2024-02-28T10:35:59;3.10;99.90
8475;DHT22;4274;52.012;8.448;2024-02-28T10:38:26;3.10;99.90
8475;DHT22;4274;52.012;8.448;2024-02-28T10:40:53;3.20;99.90
8475;DHT22;4274;52.012;8.448;2024-02-28T10:43:19;3.20;99.90
8475;DHT22;4274;52.012;8.448;2024-02-28T10:45:45;3.20;99.90
8475;DHT22;4274;52.012;8.448;2024-02-28T10:48:14;3.20;99.90
8475;DHT22;4274;52.012;8.448;2024-02-28T10:50:40;3.30;99.90
8475;DHT22;4274;52.012;8.448;2024-02-28T10:53:11;3.30;99.90
8475;DHT22;4274;52.012;8.448;2024-02-28T10:55:40;3.40;99.90
8475;DHT22;4274;52.012;8.448;2024-02-28T10:58:10;3.30;99.90
8475;DHT22;4274;52.012;8.448;2024-02-28T11:00:37;3.40;99.90
8475;DHT22;4274;52.012;8.448;2024-02-28T11:03:04;3.50;99.90
8475;DHT22;4274;52.012;8.448;2024-02-28T11:05:37;3.60;99.90
8475;DHT22;4274;52.012;8.448;2024-02-28T11:08:05;3.60;99.90
8475;DHT22;4274;52.012;8.448;2024-02-28T11:10:33;3.60;99.90
8475;DHT22;4274;52.012;8.448;2024-02-28T11:12:59;3.70;99.90
8475;DHT22;4274;52.012;8.448;2024-02-28T11:15:25;3.70;99.90
8475;DHT22;4274;52.012;8.448;2024-02-28T11:17:54;3.70;99.90
8475;DHT22;4274;52.012;8.448;2024-02-28T11:20:20;3.80;99.90
8475;DHT22;4274;52.012;8.448;2024-02-28T11:22:47;3.80;99.90
8475;DHT22;4274;52.012;8.448;2024-02-28T11:25:13;3.90;99.90
8475;DHT22;4274;52.012;8.448;2024-02-28T11:27:46;3.90;99.90
8475;DHT22;4274;52.012;8.448;2024-02-28T11:30:13;4.00;99.90
8475;DHT22;4274;52.012;8.448;2024-02-28T11:32:39;3.90;99.90
8475;DHT22;4274;52.012;8.448;2024-02-28T11:35:05;4.00;99.90
8475;DHT22;4274;52.012;8.448;2024-02-28T11:37:31;3.90;99.90
8475;DHT22;4274;52.012;8.448;2024-02-28T11:39:58;4.00;99.90
8475;DHT22;4274;52.012;8.448;2024-02-28T11:42:23;4.00;99.90
8475;DHT22;4274;52.012;8.448;2024-02-28T11:44:55;4.00;99.90
8475;DHT22;4274;52.012;8.448;2024-02-28T11:47:23;4.10;99.90
8475;DHT22;4274;52.012;8.448;2024-02-28T11:49:49;4.20;99.90
8475;DHT22;4274;52.012;8.448;2024-02-28T11:52:14;4.10;99.90
8475;DHT22;4274;52.012;8.448;2024-02-28T11:54:40;4.10;99.90
8475;DHT22;4274;52.012;8.448;2024-02-28T11:57:07;4.20;99.90
8475;DHT22;4274;52.012;8.448;2024-02-28T11:59:33;4.20;99.90
8475;DHT22;4274;52.012;8.448;2024-02-28T12:01:58;4.30;99.90
8475;DHT22;4274;52.012;8.448;2024-02-28T12:04:24;4.30;99.90
8475;DHT22;4274;52.012;8.448;2024-02-28T12:06:53;4.30;99.90
8475;DHT22;4274;52.012;8.448;2024-02-28T12:09:18;4.40;99.90
8475;DHT22;4274;52.012;8.448;2024-02-28T12:11:45;4.40;99.90
8475;DHT22;4274;52.012;8.448;2024-02-28T12:14:12;4.40;99.90
8475;DHT22;4274;52.012;8.448;2024-02-28T12:16:40;4.40;99.90
8475;DHT22;4274;52.012;8.448;2024-02-28T12:19:10;4.40;99.90
8475;DHT22;4274;52.012;8.448;2024-02-28T12:21:39;4.40;99.90
8475;DHT22;4274;52.012;8.448;2024-02-28T12:24:09;4.40;99.90
8475;DHT22;4274;52.012;8.448;2024-02-28T12:26:35;4.40;99.90
8475;DHT22;4274;52.012;8.448;2024-02-28T12:29:01;4.50;99.90
8475;DHT22;4274;52.012;8.448;2024-02-28T12:31:27;4.50;99.90
8475;DHT22;4274;52.012;8.448;2024-02-28T12:33:53;4.60;99.90
8475;DHT22;4274;52.012;8.448;2024-02-28T12:36:19;4.60;99.90
8475;DHT22;4274;52.012;8.448;2024-02-28T12:38:44;4.70;99.90
8475;DHT22;4274;52.012;8.448;2024-02-28T12:41:10;4.70;99.90
8475;DHT22;4274;52.012;8.448;2024-02-28T12:43:36;4.70;99.90
8475;DHT22;4274;52.012;8.448;2024-02-28T12:46:01;4.70;99.90
8475;DHT22;4274;52.012;8.448;2024-02-28T12:48:27;4.70;99.90
8475;DHT22;4274;52.012;8.448;2024-02-28T12:50:53;4.60;99.90
8475;DHT22;4274;52.012;8.448;2024-02-28T12:53:19;4.70;99.90
8475;DHT22;4274;52.012;8.448;2024-02-28T12:55:44;4.70;99.90
8475;DHT22;4274;52.012;8.448;2024-02-28T12:58:10;4.80;99.90
8475;DHT22;4274;52.012;8.448;2024-02-28T13:00:36;4.80;99.90
8475;DHT22;4274;52.012;8.448;2024-02-28T13:03:02;4.80;99.90
8475;DHT22;4274;52.012;8.448;2024-02-28T13:05:29;4.80;99.90
8475;DHT22;4274;52.012;8.448;2024-02-28T13:07:55;4.80;99.90
8475;DHT22;4274;52.012;8.448;2024-02-28T13:10:20;4.90;99.90
8475;DHT22;4274;52.012;8.448;2024-02-28T13:12:47;5.00;99.90
8475;DHT22;4274;52.012;8.448;2024-02-28T13:15:13;5.10;99.90
8475;DHT22;4274;52.012;8.448;2024-02-28T13:17:39;5.10;99.90
8475;DHT22;4274;52.012;8.448;2024-02-28T13:20:07;5.00;99.90
8475;DHT22;4274;52.012;8.448;2024-02-28T13:22:33;5.00;99.90
8475;DHT22;4274;52.012;8.448;2024-02-28T13:24:58;5.10;99.90
8475;DHT22;4274;52.012;8.448;2024-02-28T13:27:24;5.20;99.90
8475;DHT22;4274;52.012;8.448;2024-02-28T13:29:50;5.30;99.90
8475;DHT22;4274;52.012;8.448;2024-02-28T13:32:15;5.60;99.90
8475;DHT22;4274;52.012;8.448;2024-02-28T13:34:41;5.70;99.90
8475;DHT22;4274;52.012;8.448;2024-02-28T13:37:07;5.80;99.90
8475;DHT22;4274;52.012;8.448;2024-02-28T13:39:32;6.00;99.90
8475;DHT22;4274;52.012;8.448;2024-02-28T13:41:59;6.10;99.90
8475;DHT22;4274;52.012;8.448;2024-02-28T13:44:25;6.20;99.90
8475;DHT22;4274;52.012;8.448;2024-02-28T13:46:53;6.40;99.90
8475;DHT22;4274;52.012;8.448;2024-02-28T13:49:19;6.60;99.90
8475;DHT22;4274;52.012;8.448;2024-02-28T13:51:45;6.70;99.90
8475;DHT22;4274;52.012;8.448;2024-02-28T13:54:10;6.70;99.90
8475;DHT22;4274;52.012;8.448;2024-02-28T13:56:37;6.70;99.90
8475;DHT22;4274;52.012;8.448;2024-02-28T13:59:03;6.80;99.90
8475;DHT22;4274;52.012;8.448;2024-02-28T14:01:29;7.00;99.90
8475;DHT22;4274;52.012;8.448;2024-02-28T14:03:54;7.00;99.90
8475;DHT22;4274;52.012;8.448;2024-02-28T14:06:20;7.20;99.90
8475;DHT22;4274;52.012;8.448;2024-02-28T14:08:46;7.40;99.90
8475;DHT22;4274;52.012;8.448;2024-02-28T14:11:11;7.60;99.90
8475;DHT22;4274;52.012;8.448;2024-02-28T14:13:37;7.50;99.90
8475;DHT22;4274;52.012;8.448;2024-02-28T14:16:05;7.20;99.90
8475;DHT22;4274;52.012;8.448;2024-02-28T14:22:03;6.80;99.90
8475;DHT22;4274;52.012;8.448;2024-02-28T14:24:29;6.80;99.90
8475;DHT22;4274;52.012;8.448;2024-02-28T14:26:54;6.70;99.90
8475;DHT22;4274;52.012;8.448;2024-02-28T14:29:20;6.70;99.90
8475;DHT22;4274;52.012;8.448;2024-02-28T14:31:46;6.70;99.90
8475;DHT22;4274;52.012;8.448;2024-02-28T14:34:11;6.70;99.90
8475;DHT22;4274;52.012;8.448;2024-02-28T14:36:37;6.70;99.90
8475;DHT22;4274;52.012;8.448;2024-02-28T14:39:02;6.70;99.90
8475;DHT22;4274;52.012;8.448;2024-02-28T14:41:29;6.70;99.90
8475;DHT22;4274;52.012;8.448;2024-02-28T14:43:54;6.70;99.90
8475;DHT22;4274;52.012;8.448;2024-02-28T14:46:20;6.70;99.90
8475;DHT22;4274;52.012;8.448;2024-02-28T14:48:47;6.60;99.90
8475;DHT22;4274;52.012;8.448;2024-02-28T14:51:19;6.60;99.90
8475;DHT22;4274;52.012;8.448;2024-02-28T14:53:46;6.60;99.90
8475;DHT22;4274;52.012;8.448;2024-02-28T14:56:13;6.60;99.90
8475;DHT22;4274;52.012;8.448;2024-02-28T14:58:39;6.60;99.90
8475;DHT22;4274;52.012;8.448;2024-02-28T15:01:04;6.60;99.90
8475;DHT22;4274;52.012;8.448;2024-02-28T15:03:30;6.50;99.90
8475;DHT22;4274;52.012;8.448;2024-02-28T15:05:56;6.50;99.90
8475;DHT22;4274;52.012;8.448;2024-02-28T15:08:21;6.40;99.90
8475;DHT22;4274;52.012;8.448;2024-02-28T15:10:47;6.40;99.90
8475;DHT22;4274;52.012;8.448;2024-02-28T15:13:13;6.40;99.90
8475;DHT22;4274;52.012;8.448;2024-02-28T15:15:38;6.30;99.90
8475;DHT22;4274;52.012;8.448;2024-02-28T15:18:04;6.30;99.90
8475;DHT22;4274;52.012;8.448;2024-02-28T15:20:29;6.30;99.90
8475;DHT22;4274;52.012;8.448;2024-02-28T15:22:55;6.20;99.90
8475;DHT22;4274;52.012;8.448;2024-02-28T15:25:20;6.20;99.90
8475;DHT22;4274;52.012;8.448;2024-02-28T15:27:47;6.20;99.90
8475;DHT22;4274;52.012;8.448;2024-02-28T15:30:12;6.10;99.90
8475;DHT22;4274;52.012;8.448;2024-02-28T15:32:38;6.10;99.90
8475;DHT22;4274;52.012;8.448;2024-02-28T15:35:06;6.10;99.90
8475;DHT22;4274;52.012;8.448;2024-02-28T15:37:32;6.10;99.90
8475;DHT22;4274;52.012;8.448;2024-02-28T15:39:59;6.00;99.90
8475;DHT22;4274;52.012;8.448;2024-02-28T15:42:25;5.90;99.90
8475;DHT22;4274;52.012;8.448;2024-02-28T15:44:51;5.90;99.90
8475;DHT22;4274;52.012;8.448;2024-02-28T15:47:16;5.80;99.90
8475;DHT22;4274;52.012;8.448;2024-02-28T15:49:42;5.90;99.90
8475;DHT22;4274;52.012;8.448;2024-02-28T15:52:09;5.80;99.90
8475;DHT22;4274;52.012;8.448;2024-02-28T15:54:37;5.70;99.90
8475;DHT22;4274;52.012;8.448;2024-02-28T15:57:03;5.70;99.90
8475;DHT22;4274;52.012;8.448;2024-02-28T15:59:29;5.60;99.90
8475;DHT22;4274;52.012;8.448;2024-02-28T16:01:55;5.60;99.90
8475;DHT22;4274;52.012;8.448;2024-02-28T16:04:23;5.60;99.90
8475;DHT22;4274;52.012;8.448;2024-02-28T16:06:48;5.50;99.90